Browns Park, Colorado
Current Conditions -  °F | °C
As of 9:53 AM on Sunday 23 Nov 2014 (Local Time) from KVEL Reporting Station
Clear Clear  
Wind Chill: 29°   Ceiling: Unl
Heat Index: 37°   Visibility: 10mi
Dew Point: 16°   Wind: 13mph
Humidity: 42%   Direction: 350°N
Pressure: 30"   Gusts: 24mph
Location:  40.7245°N, 108.541°W
Report Text: KVEL 231653Z AUTO 35011G21KT 10SM CLR 03/M09 A3000 RMK AO2 SLP169 T00281089
Loading
Personal Weather Stations






























Interactive Weather Map New forecast layout! Learn more

10-Day Weather Forecast

Advertisements
Track Severe Weather on mobile